Time;durP1;ratioP1;P1;durP2;ratioP2;P2;SDS_P1;SDS_P2;PMS_P1;PMS_P2;Temp;Humidity;BMP_temperature;BMP_pressure;BME280_temperature;BME280_humidity;BME280_pressure;Samples;Min_cycle;Max_cycle;Signal;HPM_P1;HPM_P2
2022/05/10 00:01:07;;;;;;;9.55;2.60;;;16.30;71.80;;;;;;5053273;28;20029;-76
2022/05/10 00:03:36;;;;;;;7.57;2.70;;;16.20;71.90;;;;;;5053019;28;20096;-77
2022/05/10 00:06:05;;;;;;;6.93;2.60;;;16.30;71.20;;;;;;5053188;28;20051;-76
2022/05/10 00:08:32;;;;;;;10.38;2.97;;;16.30;71.50;;;;;;5052072;28;20032;-76
2022/05/10 00:10:58;;;;;;;9.75;3.13;;;16.40;72.20;;;;;;5053499;28;20113;-76
2022/05/10 00:13:27;;;;;;;10.48;3.20;;;16.40;72.30;;;;;;5053447;28;20389;-76
2022/05/10 00:15:52;;;;;;;6.97;2.70;;;16.40;72.50;;;;;;5051766;28;20029;-77
2022/05/10 00:18:20;;;;;;;6.55;2.65;;;16.50;73.00;;;;;;5053020;28;20055;-76
2022/05/10 00:20:46;;;;;;;;;;;16.40;73.30;;;;;;5053837;28;20048;-77
2022/05/10 00:23:14;;;;;;;7.13;2.92;;;16.40;73.30;;;;;;5053189;28;19916;-77
2022/05/10 00:25:41;;;;;;;9.10;3.15;;;16.40;72.80;;;;;;5053419;28;20100;-76
2022/05/10 00:28:07;;;;;;;8.43;2.90;;;16.40;73.60;;;;;;5052937;28;20049;-76
2022/05/10 00:30:33;;;;;;;9.82;3.25;;;16.50;73.80;;;;;;5052869;28;20037;-75
2022/05/10 00:32:59;;;;;;;4.80;2.90;;;16.50;74.10;;;;;;5051376;28;20090;-76
2022/05/10 00:35:28;;;;;;;6.50;2.80;;;16.50;73.00;;;;;;5052578;28;20119;-75
2022/05/10 00:37:57;;;;;;;8.18;3.10;;;16.60;73.90;;;;;;5053059;28;20128;-78
2022/05/10 00:40:29;;;;;;;8.60;3.25;;;16.60;74.20;;;;;;5052251;28;20163;-77
2022/05/10 00:43:31;;;;;;;9.57;3.10;;;16.60;74.10;;;;;;5052410;28;20056;-77
2022/05/10 00:46:07;;;;;;;12.52;2.85;;;16.60;74.10;;;;;;5052462;28;20354;-78
2022/05/10 00:48:40;;;;;;;7.90;3.05;;;16.60;74.20;;;;;;5052162;28;20127;-77
2022/05/10 00:51:16;;;;;;;8.80;2.75;;;16.60;74.50;;;;;;5052326;28;20378;-78
2022/05/10 00:54:02;;;;;;;7.53;2.65;;;16.60;74.00;;;;;;5052244;28;20111;-77
2022/05/10 00:56:53;;;;;;;10.93;2.67;;;16.60;74.60;;;;;;5052103;28;20462;-77
2022/05/10 00:59:28;;;;;;;9.77;2.88;;;16.60;74.80;;;;;;5051401;28;20378;-77
2022/05/10 01:02:01;;;;;;;9.95;3.38;;;16.60;74.80;;;;;;5052525;28;20043;-76
2022/05/10 01:04:36;;;;;;;8.40;2.85;;;16.60;74.90;;;;;;5052134;28;20087;-76
2022/05/10 01:07:13;;;;;;;5.10;2.83;;;16.70;74.90;;;;;;5052143;28;20041;-76
2022/05/10 01:09:51;;;;;;;5.47;2.35;;;16.60;75.10;;;;;;5052123;28;20037;-76
2022/05/10 01:12:24;;;;;;;5.25;2.78;;;16.60;75.20;;;;;;5052068;28;20028;-77
2022/05/10 01:15:00;;;;;;;5.60;2.40;;;16.60;75.10;;;;;;5052014;28;20048;-77
2022/05/10 01:17:26;;;;;;;6.38;2.83;;;16.60;74.90;;;;;;5052079;28;20040;-77
2022/05/10 01:19:51;;;;;;;5.13;2.33;;;16.60;75.60;;;;;;5051373;28;20451;-76
2022/05/10 01:22:38;;;;;;;7.28;2.92;;;16.60;75.60;;;;;;5051790;28;20029;-77
2022/05/10 01:25:22;;;;;;;7.93;2.85;;;16.60;76.20;;;;;;5051935;28;20044;-76
2022/05/10 01:28:19;;;;;;;11.25;2.70;;;16.50;75.50;;;;;;5051862;28;20137;-75
2022/05/10 01:30:45;;;;;;;8.05;2.83;;;16.60;75.90;;;;;;5050408;28;20049;-76
2022/05/10 01:33:43;;;;;;;9.68;3.10;;;16.50;76.40;;;;;;5051937;28;20132;-75
2022/05/10 01:36:31;;;;;;;9.27;3.13;;;16.50;76.40;;;;;;5062878;28;20142;-76
2022/05/10 01:39:17;;;;;;;;;;;16.50;76.30;;;;;;5071929;28;20039;-77
2022/05/10 01:41:54;;;;;;;6.78;2.97;;;16.50;76.50;;;;;;5070225;28;19923;-77
2022/05/10 01:44:59;;;;;;;6.72;2.80;;;16.50;76.60;;;;;;5071045;28;20103;-78
2022/05/10 01:47:31;;;;;;;4.80;2.55;;;16.40;77.20;;;;;;5071275;28;20032;-77
2022/05/10 01:50:37;;;;;;;4.43;2.42;;;16.40;77.10;;;;;;5071409;28;20021;-76
2022/05/10 01:53:13;;;;;;;7.93;3.05;;;16.50;77.10;;;;;;5034055;28;20367;-77
2022/05/10 01:55:48;;;;;;;4.45;2.83;;;16.40;77.30;;;;;;5070598;28;20036;-77
2022/05/10 01:58:28;;;;;;;8.10;3.13;;;16.50;76.70;;;;;;5070997;28;20025;-77
2022/05/10 02:00:58;;;;;;;8.80;3.17;;;16.40;77.60;;;;;;5071022;28;20039;-77
2022/05/10 02:03:46;;;;;;;7.70;2.80;;;16.40;77.40;;;;;;5069886;28;20419;-78
2022/05/10 02:06:30;;;;;;;6.22;2.80;;;16.40;77.70;;;;;;5071339;28;20547;-78
2022/05/10 02:09:11;;;;;;;9.27;2.75;;;16.40;78.00;;;;;;5071063;28;20036;-78
2022/05/10 02:11:41;;;;;;;3.95;2.47;;;16.30;77.80;;;;;;5071010;28;20025;-77
2022/05/10 02:14:16;;;;;;;6.43;3.08;;;16.40;77.90;;;;;;5070720;28;20032;-77
2022/05/10 02:16:48;;;;;;;10.15;2.75;;;16.40;78.00;;;;;;5070227;28;20311;-77
2022/05/10 02:19:23;;;;;;;6.65;3.15;;;16.30;78.40;;;;;;5071006;28;20132;-77
2022/05/10 02:22:01;;;;;;;9.50;3.10;;;16.30;78.30;;;;;;5070877;28;20078;-77
2022/05/10 02:24:30;;;;;;;5.32;2.80;;;16.40;78.20;;;;;;5070852;28;20033;-77
2022/05/10 02:26:59;;;;;;;10.40;3.53;;;16.40;78.40;;;;;;5070642;28;20090;-77
2022/05/10 02:29:44;;;;;;;6.00;2.70;;;16.40;78.40;;;;;;5069240;28;20111;-77
2022/05/10 02:35:14;;;;;;;6.43;3.58;;;16.40;78.30;;;;;;5070647;28;20110;-78
2022/05/10 02:37:40;;;;;;;6.10;2.95;;;16.40;78.20;;;;;;5071154;28;20082;-77
2022/05/10 02:40:06;;;;;;;4.43;2.80;;;16.40;78.10;;;;;;5070585;28;20095;-77
2022/05/10 02:42:33;;;;;;;6.82;2.80;;;16.40;78.80;;;;;;5070681;28;20466;-77
2022/05/10 02:45:00;;;;;;;6.82;2.70;;;16.40;78.50;;;;;;5070600;28;20040;-78
2022/05/10 02:47:40;;;;;;;9.95;2.78;;;16.40;78.10;;;;;;5070438;28;20029;-78
2022/05/10 02:50:13;;;;;;;6.47;2.60;;;16.40;78.10;;;;;;5069254;28;20374;-77
2022/05/10 02:52:39;;;;;;;10.07;2.85;;;16.40;78.40;;;;;;5070700;28;20332;-77
2022/05/10 02:55:16;;;;;;;6.63;2.33;;;16.40;78.50;;;;;;5070369;28;20055;-75
2022/05/10 02:57:45;;;;;;;12.40;2.85;;;16.40;78.20;;;;;;5069264;28;20048;-76
2022/05/10 03:00:11;;;;;;;8.43;2.97;;;16.50;78.10;;;;;;5070255;28;20033;-77
2022/05/10 03:02:45;;;;;;;10.20;2.80;;;16.50;78.60;;;;;;5072643;28;20039;-77
2022/05/10 03:05:12;;;;;;;8.88;3.17;;;16.40;78.20;;;;;;5074605;28;20059;-76
2022/05/10 03:07:38;;;;;;;5.88;3.17;;;16.40;78.30;;;;;;5074994;28;20398;-77
2022/05/10 03:10:05;;;;;;;3.92;2.58;;;16.40;78.20;;;;;;5074528;28;20032;-76
2022/05/10 03:12:31;;;;;;;7.85;3.17;;;16.40;78.10;;;;;;5074418;28;20025;-76
2022/05/10 03:14:57;;;;;;;6.82;3.08;;;16.40;78.30;;;;;;5074422;28;20033;-75
2022/05/10 03:17:23;;;;;;;4.43;2.42;;;16.50;78.30;;;;;;5074222;28;20020;-77
2022/05/10 03:19:49;;;;;;;7.75;2.70;;;16.40;78.50;;;;;;5073658;28;20432;-76
2022/05/10 03:22:15;;;;;;;7.43;2.55;;;16.40;78.20;;;;;;5073285;28;20032;-77
2022/05/10 03:24:40;;;;;;;6.63;2.50;;;16.40;78.90;;;;;;5074021;28;20143;-76
2022/05/10 03:27:08;;;;;;;9.02;3.47;;;16.40;78.30;;;;;;5074206;28;20036;-75
2022/05/10 03:29:34;;;;;;;6.85;2.78;;;16.40;78.90;;;;;;5073985;28;20047;-76
2022/05/10 03:32:00;;;;;;;8.75;2.90;;;16.40;78.70;;;;;;5072849;28;20035;-76
2022/05/10 03:37:10;;;;;;;9.25;2.55;;;16.40;79.10;;;;;;5074684;28;20036;-76
2022/05/10 03:39:36;;;;;;;7.10;2.85;;;16.30;78.80;;;;;;5074312;28;20029;-75
2022/05/10 03:42:03;;;;;;;6.32;2.92;;;16.40;78.80;;;;;;5074207;28;20111;-77
2022/05/10 03:44:31;;;;;;;5.43;2.77;;;16.40;78.80;;;;;;5072646;28;20465;-77
2022/05/10 03:46:57;;;;;;;12.40;3.55;;;16.30;78.80;;;;;;5073022;28;20593;-77
2022/05/10 03:49:22;;;;;;;6.93;3.08;;;16.30;78.60;;;;;;5073777;28;20603;-76
2022/05/10 03:51:48;;;;;;;7.35;2.38;;;16.30;79.30;;;;;;5073801;28;20028;-76
2022/05/10 03:54:13;;;;;;;8.68;2.58;;;16.30;79.00;;;;;;5073761;28;20125;-78
2022/05/10 03:56:39;;;;;;;9.25;3.08;;;16.30;79.40;;;;;;5073425;28;20035;-79
2022/05/10 03:59:05;;;;;;;5.80;2.55;;;16.30;79.50;;;;;;5072609;28;20020;-78
2022/05/10 04:01:31;;;;;;;6.30;3.15;;;16.30;79.30;;;;;;5072801;28;20120;-77
2022/05/10 04:03:56;;;;;;;9.63;2.72;;;16.30;79.10;;;;;;5073472;28;20028;-78
2022/05/10 04:06:22;;;;;;;15.30;2.95;;;16.30;79.20;;;;;;5073243;28;20037;-76
2022/05/10 04:08:48;;;;;;;6.15;2.90;;;16.30;79.50;;;;;;5073200;28;20196;-78
2022/05/10 04:11:14;;;;;;;10.60;2.80;;;16.30;79.00;;;;;;5072902;28;20024;-77
2022/05/10 04:13:41;;;;;;;7.38;2.67;;;16.30;79.60;;;;;;5071612;28;20017;-77
2022/05/10 04:16:07;;;;;;;5.82;2.60;;;16.30;79.70;;;;;;5073067;28;20620;-77
2022/05/10 04:18:33;;;;;;;9.27;3.30;;;16.30;79.80;;;;;;5072853;28;20032;-78
2022/05/10 04:20:59;;;;;;;4.93;2.63;;;16.40;79.20;;;;;;5073134;28;20033;-78
2022/05/10 04:23:24;;;;;;;6.55;2.70;;;16.30;79.40;;;;;;5072984;28;20039;-78
2022/05/10 04:25:50;;;;;;;10.70;2.78;;;16.40;79.60;;;;;;5073381;28;20096;-76
2022/05/10 04:28:16;;;;;;;8.75;2.95;;;16.40;79.40;;;;;;5072686;28;20496;-76
2022/05/10 04:30:42;;;;;;;5.35;2.58;;;16.40;79.90;;;;;;5072680;28;20040;-77
2022/05/10 04:33:08;;;;;;;8.15;2.92;;;16.40;79.90;;;;;;5071612;28;20097;-76
2022/05/10 04:35:33;;;;;;;15.30;3.00;;;16.40;79.70;;;;;;5072725;28;20028;-77
2022/05/10 04:38:05;;;;;;;7.97;3.15;;;16.50;79.70;;;;;;5072626;28;20167;-77
2022/05/10 04:43:16;;;;;;;6.88;2.60;;;16.50;79.40;;;;;;5072601;28;20098;-78
2022/05/10 04:45:42;;;;;;;5.65;2.60;;;16.50;79.50;;;;;;5072356;28;20490;-78
2022/05/10 04:48:08;;;;;;;6.28;2.40;;;16.50;80.20;;;;;;5072416;28;20062;-81
2022/05/10 04:50:33;;;;;;;10.02;2.90;;;16.60;80.20;;;;;;5072333;28;20064;-77
2022/05/10 04:52:59;;;;;;;9.38;2.70;;;16.60;79.90;;;;;;5072324;28;20028;-76
2022/05/10 04:55:25;;;;;;;4.43;2.60;;;16.50;79.90;;;;;;5072596;28;20374;-77
2022/05/10 04:57:50;;;;;;;5.18;2.92;;;16.60;80.10;;;;;;5072549;28;20028;-76
2022/05/10 05:00:17;;;;;;;7.30;2.80;;;16.70;80.40;;;;;;5072296;28;20025;-79
2022/05/10 05:02:42;;;;;;;7.78;2.55;;;16.70;80.00;;;;;;5072238;28;20040;-79
2022/05/10 05:05:10;;;;;;;7.88;2.60;;;16.70;80.10;;;;;;5072370;28;20037;-77
2022/05/10 05:07:36;;;;;;;5.53;2.55;;;16.80;79.80;;;;;;5072622;28;20020;-80
2022/05/10 05:10:06;;;;;;;5.50;2.58;;;16.70;80.00;;;;;;5071875;28;20078;-77
2022/05/10 05:12:35;;;;;;;7.57;2.95;;;16.80;80.20;;;;;;5071853;28;20028;-77
2022/05/10 05:15:03;;;;;;;5.97;2.80;;;16.80;80.20;;;;;;5070989;28;20036;-80
2022/05/10 05:17:31;;;;;;;9.35;2.80;;;16.90;79.80;;;;;;5070978;28;20378;-78
2022/05/10 05:19:57;;;;;;;9.43;2.80;;;16.90;80.00;;;;;;5071286;28;20032;-79
2022/05/10 05:22:22;;;;;;;6.15;2.60;;;16.90;80.00;;;;;;5070673;28;20047;-77
2022/05/10 05:24:48;;;;;;;16.27;3.40;;;17.00;80.10;;;;;;5071664;28;20036;-75
2022/05/10 05:27:16;;;;;;;8.88;2.88;;;17.00;80.00;;;;;;5069127;28;20038;-81
2022/05/10 05:29:41;;;;;;;;;;;17.00;80.00;;;;;;5051533;28;20132;-80
2022/05/10 05:32:10;;;;;;;13.65;2.78;;;17.10;79.70;;;;;;5067460;28;19912;-80
2022/05/10 05:34:36;;;;;;;10.63;3.25;;;17.10;79.90;;;;;;5052228;28;20029;-77
2022/05/10 05:39:47;;;;;;;4.85;2.22;;;17.20;79.70;;;;;;5051501;28;20090;-76
2022/05/10 05:42:12;;;;;;;7.68;2.63;;;17.20;80.20;;;;;;5051369;28;20032;-78
2022/05/10 05:44:38;;;;;;;5.63;2.88;;;17.30;80.20;;;;;;5051486;28;20033;-80
2022/05/10 05:47:04;;;;;;;7.57;2.33;;;17.30;79.70;;;;;;5051634;28;20067;-78
2022/05/10 05:49:32;;;;;;;7.10;2.80;;;17.40;79.80;;;;;;5052262;28;20032;-78
2022/05/10 05:51:59;;;;;;;12.45;3.22;;;17.40;79.50;;;;;;5050147;28;20036;-76
2022/05/10 05:54:26;;;;;;;8.02;2.85;;;17.40;79.60;;;;;;5051279;28;20025;-78
2022/05/10 05:57:06;;;;;;;6.55;3.22;;;17.50;79.70;;;;;;5051166;28;20037;-77
2022/05/10 05:59:33;;;;;;;8.77;2.80;;;17.50;79.40;;;;;;5051414;28;20044;-77
2022/05/10 06:01:59;;;;;;;7.88;3.03;;;17.60;79.50;;;;;;5052070;28;20033;-76
2022/05/10 06:04:24;;;;;;;6.00;3.15;;;17.60;79.50;;;;;;5051306;28;20124;-79
2022/05/10 06:06:50;;;;;;;13.80;2.40;;;17.70;79.80;;;;;;5051180;28;20658;-77
2022/05/10 06:09:19;;;;;;;9.07;2.88;;;17.80;79.60;;;;;;5051175;28;20518;-77
2022/05/10 06:11:46;;;;;;;11.30;3.38;;;17.80;79.70;;;;;;5050913;28;20309;-77
2022/05/10 06:14:11;;;;;;;8.25;2.60;;;17.90;79.60;;;;;;5050780;28;20021;-77
2022/05/10 06:16:39;;;;;;;6.18;2.78;;;18.10;79.50;;;;;;5050366;28;20023;-77
2022/05/10 06:19:05;;;;;;;12.38;5.00;;;18.20;79.50;;;;;;5049787;28;20091;-77
2022/05/10 06:21:32;;;;;;;9.57;3.15;;;18.30;79.10;;;;;;5049637;28;20470;-78
2022/05/10 06:23:57;;;;;;;7.22;2.85;;;18.40;78.90;;;;;;5051000;28;20327;-77
2022/05/10 06:26:23;;;;;;;7.78;2.97;;;18.60;78.60;;;;;;5050507;28;20527;-77
2022/05/10 06:28:48;;;;;;;9.40;3.17;;;18.70;78.30;;;;;;5049786;28;20045;-77
2022/05/10 06:31:14;;;;;;;15.40;5.43;;;19.10;78.20;;;;;;5050441;28;20391;-77
2022/05/10 06:33:40;;;;;;;7.20;3.28;;;19.40;78.00;;;;;;5050876;28;20033;-78
2022/05/10 06:36:08;;;;;;;8.30;2.75;;;19.80;77.10;;;;;;5050398;28;20336;-78
2022/05/10 06:38:34;;;;;;;7.45;3.15;;;20.10;76.50;;;;;;5050392;28;20035;-77
2022/05/10 06:41:06;;;;;;;3.88;2.03;;;20.40;75.20;;;;;;5050721;28;20033;-75
2022/05/10 06:43:38;;;;;;;7.45;2.80;;;20.40;74.20;;;;;;5050868;28;20415;-76
2022/05/10 06:46:20;;;;;;;9.27;2.80;;;20.60;74.30;;;;;;5050398;28;20043;-75
2022/05/10 06:48:46;;;;;;;6.10;2.47;;;20.80;73.80;;;;;;5050326;28;20042;-75
2022/05/10 06:51:14;;;;;;;12.43;3.70;;;20.90;73.50;;;;;;5050364;28;20055;-76
2022/05/10 06:53:40;;;;;;;10.52;3.70;;;20.90;72.60;;;;;;5050527;28;20402;-74
2022/05/10 06:56:08;;;;;;;5.47;2.50;;;20.90;72.80;;;;;;5048952;28;20029;-75
2022/05/10 06:58:35;;;;;;;6.35;2.50;;;21.00;72.40;;;;;;5050730;28;20036;-77
2022/05/10 07:01:00;;;;;;;9.60;2.70;;;21.20;72.80;;;;;;5050584;28;20045;-75
2022/05/10 07:03:32;;;;;;;6.55;2.17;;;21.30;72.40;;;;;;5049477;28;20319;-74
2022/05/10 07:06:18;;;;;;;5.88;2.30;;;21.40;71.70;;;;;;5050356;28;20171;-75
2022/05/10 07:08:44;;;;;;;7.30;2.55;;;21.50;72.20;;;;;;5049979;28;20033;-75
2022/05/10 07:11:09;;;;;;;12.10;2.65;;;21.60;71.70;;;;;;5050360;28;20483;-74
2022/05/10 07:13:36;;;;;;;5.60;2.63;;;21.70;71.30;;;;;;5050558;28;20013;-75
2022/05/10 07:16:05;;;;;;;6.25;2.85;;;21.90;71.10;;;;;;5050164;28;20059;-76
2022/05/10 07:18:31;;;;;;;8.95;2.63;;;22.20;70.80;;;;;;5050288;28;20079;-73
2022/05/10 07:20:56;;;;;;;6.82;2.63;;;22.50;69.70;;;;;;5048895;28;20049;-74
2022/05/10 07:23:29;;;;;;;8.57;2.85;;;22.70;69.30;;;;;;5049926;28;20057;-74
2022/05/10 07:25:55;;;;;;;6.95;2.83;;;22.70;68.50;;;;;;5050364;28;20017;-75
2022/05/10 07:28:21;;;;;;;10.57;3.00;;;22.80;69.20;;;;;;5049924;28;20646;-74
2022/05/10 07:30:48;;;;;;;13.48;5.85;;;22.70;68.40;;;;;;5049863;28;20052;-74
2022/05/10 07:33:18;;;;;;;6.57;3.72;;;22.70;69.10;;;;;;5049997;28;20119;-74
2022/05/10 07:38:28;;;;;;;7.30;2.95;;;22.50;68.90;;;;;;5050471;28;20040;-74
2022/05/10 07:40:54;;;;;;;7.82;2.55;;;22.60;68.00;;;;;;5050521;28;20029;-73
2022/05/10 07:43:21;;;;;;;4.85;2.80;;;22.60;68.50;;;;;;5049874;28;20035;-75
2022/05/10 07:45:49;;;;;;;8.07;3.05;;;22.50;68.60;;;;;;5049842;28;20098;-75
2022/05/10 07:48:15;;;;;;;9.23;3.33;;;22.40;68.20;;;;;;5049973;28;20348;-74
2022/05/10 07:50:41;;;;;;;6.68;2.97;;;22.40;67.70;;;;;;5053541;28;20048;-75
2022/05/10 07:53:13;;;;;;;6.88;2.70;;;22.50;68.00;;;;;;5052364;28;20197;-74
2022/05/10 07:55:39;;;;;;;7.38;2.88;;;22.60;67.70;;;;;;5053852;28;20032;-74
2022/05/10 07:58:06;;;;;;;8.82;3.00;;;22.90;68.00;;;;;;5053375;28;20029;-75
2022/05/10 08:00:36;;;;;;;9.85;2.85;;;23.10;67.60;;;;;;5053524;28;20484;-74
2022/05/10 08:03:14;;;;;;;3.22;2.45;;;23.50;66.40;;;;;;5052418;28;20507;-75
2022/05/10 08:05:40;;;;;;;10.80;2.50;;;23.70;64.80;;;;;;5052057;28;20040;-72
2022/05/10 08:08:07;;;;;;;4.68;2.83;;;23.80;64.90;;;;;;5052097;28;20017;-76
2022/05/10 08:10:33;;;;;;;7.88;3.38;;;23.90;64.30;;;;;;5052219;28;20324;-75
2022/05/10 08:12:58;;;;;;;9.45;3.33;;;23.70;63.70;;;;;;5053125;28;20028;-74
2022/05/10 08:15:24;;;;;;;8.15;3.17;;;23.70;64.30;;;;;;5052854;28;20017;-75
2022/05/10 08:17:49;;;;;;;7.35;3.35;;;23.90;63.50;;;;;;5052832;28;20557;-74
2022/05/10 08:20:15;;;;;;;5.53;3.10;;;24.10;62.80;;;;;;5052887;28;20029;-78
2022/05/10 08:22:41;;;;;;;9.55;3.28;;;24.60;62.70;;;;;;5053314;28;20467;-74
2022/05/10 08:25:07;;;;;;;4.57;2.95;;;24.90;61.50;;;;;;5052875;28;20467;-74
2022/05/10 08:27:33;;;;;;;9.57;2.92;;;25.20;61.20;;;;;;5052844;28;20029;-75
2022/05/10 08:29:59;;;;;;;5.78;2.60;;;25.30;60.30;;;;;;5052728;28;20032;-76
2022/05/10 08:32:24;;;;;;;7.00;2.90;;;25.60;60.60;;;;;;5052810;28;20025;-74
2022/05/10 08:34:50;;;;;;;6.00;2.47;;;26.00;60.10;;;;;;5053058;28;20031;-75
2022/05/10 08:37:15;;;;;;;5.57;2.83;;;26.50;59.60;;;;;;5052619;28;20474;-75
2022/05/10 08:39:41;;;;;;;9.95;3.08;;;26.70;58.10;;;;;;5052651;28;20037;-76
2022/05/10 08:42:22;;;;;;;8.05;2.97;;;26.90;57.10;;;;;;5052594;28;20121;-75
2022/05/10 08:45:00;;;;;;;12.10;3.13;;;27.60;57.20;;;;;;5051431;28;20029;-76
2022/05/10 08:47:26;;;;;;;;;;;27.80;55.60;;;;;;5053075;28;20104;-76
2022/05/10 08:50:16;;;;;;;5.70;2.75;;;28.20;54.60;;;;;;5052816;28;19912;-75
2022/05/10 08:52:45;;;;;;;6.18;2.83;;;28.30;54.30;;;;;;5052577;28;20040;-76
2022/05/10 08:55:13;;;;;;;8.48;4.80;;;28.70;53.70;;;;;;5052478;28;20107;-77
2022/05/10 08:57:52;;;;;;;6.75;3.08;;;28.20;53.30;;;;;;5052635;28;20033;-76
2022/05/10 09:00:44;;;;;;;5.80;4.00;;;27.90;52.80;;;;;;5052163;28;20446;-78
2022/05/10 09:04:04;;;;;;;17.38;4.88;;;27.40;53.80;;;;;;5051265;28;20037;-77
2022/05/10 09:06:35;;;;;;;8.77;3.50;;;26.80;54.80;;;;;;4993213;28;20034;-75
2022/05/10 09:09:19;;;;;;;6.13;3.58;;;26.50;55.50;;;;;;5044834;28;20028;-75
2022/05/10 09:11:52;;;;;;;5.10;2.67;;;26.40;56.00;;;;;;5050953;28;20098;-75
2022/05/10 09:14:25;;;;;;;5.15;2.88;;;26.70;56.30;;;;;;5051925;28;20025;-76
2022/05/10 09:16:52;;;;;;;6.70;3.33;;;27.30;55.00;;;;;;5052261;28;20455;-75
2022/05/10 09:19:18;;;;;;;9.32;3.47;;;27.40;54.70;;;;;;5051753;28;20521;-76
2022/05/10 09:21:52;;;;;;;8.43;3.40;;;27.80;54.60;;;;;;5051991;28;20083;-75
2022/05/10 09:24:38;;;;;;;4.70;3.03;;;28.00;53.90;;;;;;5050669;28;20029;-77
2022/05/10 09:27:09;;;;;;;4.90;3.25;;;28.40;53.50;;;;;;5051530;28;20114;-77
2022/05/10 09:29:44;;;;;;;6.38;3.25;;;28.60;52.90;;;;;;5051294;28;20521;-76
2022/05/10 09:35:28;;;;;;;7.00;3.30;;;29.40;51.80;;;;;;5051398;28;20498;-75
2022/05/10 09:37:56;;;;;;;5.38;3.10;;;29.50;52.10;;;;;;5051993;28;20162;-80
2022/05/10 09:40:47;;;;;;;11.15;5.15;;;29.50;51.00;;;;;;5051309;28;20067;-74
2022/05/10 09:43:33;;;;;;;7.22;3.40;;;30.40;50.50;;;;;;5051384;28;20471;-78
2022/05/10 09:46:11;;;;;;;8.25;3.47;;;31.00;49.10;;;;;;5051298;28;20033;-76
2022/05/10 09:48:38;;;;;;;7.78;3.85;;;31.30;47.80;;;;;;5049998;28;20032;-76
2022/05/10 09:51:23;;;;;;;10.25;3.45;;;31.40;48.10;;;;;;5051092;28;20510;-74
2022/05/10 09:53:50;;;;;;;6.88;3.28;;;31.40;47.90;;;;;;5051136;28;20444;-75
2022/05/10 09:56:24;;;;;;;4.82;3.03;;;31.60;47.20;;;;;;5050001;28;20447;-75
2022/05/10 09:59:09;;;;;;;9.90;3.45;;;31.50;46.20;;;;;;5052157;28;20086;-76
2022/05/10 10:01:45;;;;;;;7.88;3.50;;;31.40;47.50;;;;;;5049947;28;20047;-74
2022/05/10 10:04:25;;;;;;;4.38;3.40;;;31.20;47.00;;;;;;5051183;28;20021;-74
2022/05/10 10:07:18;;;;;;;8.60;4.28;;;30.90;47.40;;;;;;5051180;28;20025;-77
2022/05/10 10:09:53;;;;;;;7.10;3.38;;;30.30;47.50;;;;;;5050807;28;20116;-76
2022/05/10 10:12:39;;;;;;;7.18;3.60;;;29.80;47.20;;;;;;5050408;28;20032;-76
2022/05/10 10:15:35;;;;;;;8.77;3.65;;;29.50;47.80;;;;;;5050330;28;20116;-76
2022/05/10 10:18:04;;;;;;;9.60;4.30;;;29.30;48.50;;;;;;5050556;28;20033;-75
2022/05/10 10:20:54;;;;;;;6.25;4.40;;;29.30;48.40;;;;;;5050675;28;20348;-76
2022/05/10 10:23:43;;;;;;;12.82;4.47;;;29.00;49.30;;;;;;5050373;28;20462;-75
2022/05/10 10:26:25;;;;;;;9.95;5.13;;;29.30;49.30;;;;;;5050764;28;20450;-75
2022/05/10 10:29:17;;;;;;;5.32;3.33;;;29.20;49.60;;;;;;5050925;28;20044;-76
2022/05/10 10:31:52;;;;;;;5.25;3.28;;;29.10;49.40;;;;;;5048674;28;20484;-75
2022/05/10 10:34:42;;;;;;;6.82;3.60;;;29.20;49.50;;;;;;5050429;28;20040;-76
2022/05/10 10:37:16;;;;;;;7.40;3.50;;;29.20;49.90;;;;;;5050560;28;20033;-76
2022/05/10 10:40:07;;;;;;;8.82;3.55;;;29.10;50.10;;;;;;5050609;28;20028;-76
2022/05/10 10:43:03;;;;;;;5.93;3.60;;;28.90;49.30;;;;;;5049060;28;20036;-76
2022/05/10 10:45:55;;;;;;;6.78;3.45;;;29.10;50.30;;;;;;5050372;28;20029;-74
2022/05/10 10:48:50;;;;;;;7.57;2.80;;;29.00;50.60;;;;;;5050479;28;20069;-74
2022/05/10 10:51:17;;;;;;;8.20;4.22;;;29.00;50.80;;;;;;5030598;28;20478;-76
2022/05/10 10:53:45;;;;;;;4.93;3.30;;;29.00;50.20;;;;;;5049530;28;20079;-75
2022/05/10 10:56:34;;;;;;;5.18;3.15;;;28.90;49.60;;;;;;5050594;28;20033;-75
2022/05/10 10:59:39;;;;;;;7.88;3.70;;;28.80;49.60;;;;;;5050562;28;20032;-73
2022/05/10 11:02:43;;;;;;;11.07;3.72;;;28.40;49.10;;;;;;5050471;28;20013;-74
2022/05/10 11:05:41;;;;;;;13.73;4.63;;;28.50;50.00;;;;;;5050257;28;20013;-77
2022/05/10 11:08:09;;;;;;;5.00;3.30;;;28.40;50.30;;;;;;5049415;28;20075;-77
2022/05/10 11:10:50;;;;;;;7.18;5.03;;;28.20;50.30;;;;;;5050562;28;20025;-75
2022/05/10 11:13:46;;;;;;;9.30;4.47;;;27.90;50.40;;;;;;5050256;28;20527;-76
2022/05/10 11:16:29;;;;;;;5.68;3.30;;;27.70;50.10;;;;;;5055957;28;20025;-75
2022/05/10 11:19:13;;;;;;;7.13;3.90;;;27.60;50.30;;;;;;5050187;28;20078;-75
2022/05/10 11:21:46;;;;;;;7.40;3.63;;;27.50;50.50;;;;;;5048883;28;20029;-76
2022/05/10 11:24:37;;;;;;;5.75;3.33;;;27.50;50.70;;;;;;5053313;28;20036;-76
2022/05/10 11:27:06;;;;;;;8.88;3.55;;;27.70;50.20;;;;;;5054117;28;20478;-75
2022/05/10 11:29:42;;;;;;;9.63;5.63;;;27.70;50.10;;;;;;5052696;28;20086;-76
2022/05/10 11:32:39;;;;;;;7.85;4.00;;;27.80;50.50;;;;;;5054006;28;20097;-75
2022/05/10 11:35:22;;;;;;;8.05;3.25;;;27.90;50.60;;;;;;5050650;28;20037;-75
2022/05/10 11:38:06;;;;;;;7.82;3.25;;;27.80;50.70;;;;;;5054292;28;20070;-77
2022/05/10 11:40:47;;;;;;;6.57;3.17;;;27.90;50.90;;;;;;5053976;28;20044;-77
2022/05/10 11:43:31;;;;;;;6.22;3.20;;;27.90;50.60;;;;;;5053988;28;20029;-78
2022/05/10 11:46:34;;;;;;;7.68;3.30;;;27.90;50.90;;;;;;5053616;28;20032;-78
2022/05/10 11:49:26;;;;;;;8.18;2.72;;;27.60;50.40;;;;;;5054015;28;20029;-76
2022/05/10 11:52:39;;;;;;;6.82;3.08;;;27.80;51.50;;;;;;5052625;28;20127;-78
2022/05/10 11:55:18;;;;;;;7.28;2.78;;;27.80;50.10;;;;;;5044867;28;20049;-77
2022/05/10 11:57:44;;;;;;;7.78;3.45;;;27.60;48.30;;;;;;5053470;28;20391;-76
2022/05/10 12:00:35;;;;;;;5.50;4.10;;;27.70;48.30;;;;;;5053621;28;20033;-76
2022/05/10 12:03:09;;;;;;;4.55;2.75;;;27.80;47.90;;;;;;5053331;28;20043;-77
2022/05/10 12:05:39;;;;;;;5.40;2.85;;;27.60;47.90;;;;;;5053090;28;20029;-77
2022/05/10 12:08:19;;;;;;;6.60;3.00;;;27.50;48.20;;;;;;5053379;28;20052;-77
2022/05/10 12:10:46;;;;;;;7.70;3.13;;;27.50;47.80;;;;;;5053689;28;20463;-77
2022/05/10 12:22:14;;;;;;;6.68;3.72;;;27.50;48.20;;;;;;5053221;28;20660;-75
2022/05/10 12:24:45;;;;;;;3.97;2.92;;;27.40;48.20;;;;;;5053136;28;20029;-74
2022/05/10 12:27:10;;;;;;;6.32;2.80;;;27.50;48.40;;;;;;5053354;28;20029;-76
2022/05/10 12:29:39;;;;;;;4.88;3.17;;;27.50;48.50;;;;;;5052810;28;20114;-76
2022/05/10 12:32:30;;;;;;;8.95;3.00;;;27.60;48.80;;;;;;5053363;28;20106;-75
2022/05/10 12:35:02;;;;;;;8.20;3.10;;;27.60;48.80;;;;;;5052480;28;20032;-77
2022/05/10 12:37:28;;;;;;;8.15;3.47;;;27.50;49.20;;;;;;5052936;28;20041;-78
2022/05/10 12:39:56;;;;;;;12.60;3.72;;;27.60;49.30;;;;;;5052733;28;20355;-77
2022/05/10 12:42:59;;;;;;;7.50;3.58;;;27.50;49.60;;;;;;5052756;28;20530;-74
2022/05/10 12:45:40;;;;;;;9.30;3.72;;;27.10;49.70;;;;;;5052746;28;20108;-77
2022/05/10 12:48:08;;;;;;;5.45;3.60;;;27.20;49.80;;;;;;5052765;28;20045;-75
2022/05/10 12:50:59;;;;;;;4.35;3.10;;;27.20;49.90;;;;;;5051825;28;20043;-76
2022/05/10 12:53:31;;;;;;;5.78;2.72;;;27.30;49.80;;;;;;5052746;28;20033;-76
2022/05/10 12:56:27;;;;;;;7.00;2.83;;;27.40;49.70;;;;;;5053066;28;20116;-76
2022/05/10 12:58:59;;;;;;;10.85;2.97;;;27.30;49.00;;;;;;5029327;28;20051;-76
2022/05/10 13:01:28;;;;;;;6.95;3.03;;;27.40;48.80;;;;;;5052585;28;20417;-77
2022/05/10 13:04:13;;;;;;;8.68;2.90;;;27.40;48.90;;;;;;5052486;28;20037;-76
2022/05/10 13:06:48;;;;;;;7.53;2.67;;;27.40;48.60;;;;;;5052562;28;20033;-78
2022/05/10 13:09:31;;;;;;;8.55;2.75;;;27.40;48.70;;;;;;5052282;28;20036;-78
2022/05/10 13:12:09;;;;;;;6.13;2.90;;;27.50;48.70;;;;;;5052317;28;20610;-77
2022/05/10 13:14:43;;;;;;;4.82;3.28;;;27.50;48.80;;;;;;5052560;28;20044;-76
2022/05/10 13:17:10;;;;;;;9.32;2.78;;;27.40;48.30;;;;;;5052110;28;20019;-76
2022/05/10 13:19:42;;;;;;;10.03;3.63;;;27.20;49.00;;;;;;5052467;28;20032;-78
2022/05/10 13:22:12;;;;;;;8.52;3.28;;;27.20;48.80;;;;;;5052125;28;20021;-77
2022/05/10 13:24:38;;;;;;;5.07;2.75;;;27.10;48.40;;;;;;5051976;28;20036;-75
2022/05/10 13:27:05;;;;;;;11.50;3.97;;;27.20;47.90;;;;;;5051445;28;20379;-76
2022/05/10 13:29:40;;;;;;;7.03;3.17;;;27.20;48.10;;;;;;5052122;28;20099;-77
2022/05/10 13:32:26;;;;;;;6.90;3.22;;;27.20;48.30;;;;;;5051961;28;20045;-76
2022/05/10 13:35:00;;;;;;;6.22;3.33;;;27.10;47.00;;;;;;5052588;28;20025;-76
2022/05/10 13:37:30;;;;;;;6.07;3.30;;;27.00;46.70;;;;;;5041237;28;20059;-76
2022/05/10 13:40:00;;;;;;;9.70;2.90;;;27.20;47.30;;;;;;5051900;28;20032;-77
2022/05/10 13:42:26;;;;;;;5.88;2.80;;;27.30;47.20;;;;;;5051833;28;20028;-77